Grandview on Hudson, New York
Current Conditions -  °F | °C
As of 12:56 PM on Sunday 23 Nov 2014 (Local Time) from KHPN Reporting Station
Few Clouds Few Clouds  
Wind Chill: 54°   Ceiling: Unl
Heat Index: 54°   Visibility: 10mi
Dew Point: 23°   Wind: 0mph
Humidity: 30%   Direction: NA
Pressure: 30.11"   Gusts: NA
Location:  41.0938°N, 73.9254°W
Report Text: KHPN 231756Z 00000KT 10SM FEW100 12/M05 A3011 RMK AO2 SLP200 T01221050 10122 20050 58022
Loading
Personal Weather Stations






























Interactive Weather Map New forecast layout! Learn more

10-Day Weather Forecast

Advertisements
Track Severe Weather on mobile